Time;durP1;ratioP1;P1;durP2;ratioP2;P2;SDS_P1;SDS_P2;PMS_P1;PMS_P2;Temp;Humidity;BMP_temperature;BMP_pressure;BME280_temperature;BME280_humidity;BME280_pressure;Samples;Min_cycle;Max_cycle;Signal;HPM_P1;HPM_P2
2021/12/09 00:01:14;;;;;;;13.13;8.07;;;1.80;99.90;;;;;;5094050;28;20098;-75
2021/12/09 00:03:41;;;;;;;13.65;8.15;;;1.80;99.90;;;;;;5093850;28;20044;-75
2021/12/09 00:06:09;;;;;;;13.23;7.25;;;1.90;99.90;;;;;;5076118;28;20055;-74
2021/12/09 00:08:37;;;;;;;13.18;8.07;;;1.90;99.90;;;;;;5093641;28;20047;-75
2021/12/09 00:11:05;;;;;;;19.73;7.28;;;1.90;99.90;;;;;;5093261;28;20067;-75
2021/12/09 00:13:31;;;;;;;18.85;7.95;;;1.90;99.90;;;;;;5093545;28;20048;-74
2021/12/09 00:15:57;;;;;;;11.20;7.82;;;2.00;99.90;;;;;;5093573;28;20047;-75
2021/12/09 00:18:24;;;;;;;13.48;8.02;;;2.00;99.90;;;;;;5093428;28;20358;-75
2021/12/09 00:20:50;;;;;;;15.38;8.18;;;2.00;99.90;;;;;;5093491;28;20042;-74
2021/12/09 00:23:16;;;;;;;13.43;8.13;;;2.00;99.90;;;;;;5093153;28;20048;-75
2021/12/09 00:25:42;;;;;;;16.00;9.18;;;2.00;99.90;;;;;;5092988;28;20097;-76
2021/12/09 00:28:08;;;;;;;21.40;10.70;;;2.00;99.90;;;;;;5075435;28;20044;-75
2021/12/09 00:30:34;;;;;;;12.90;8.10;;;2.00;99.90;;;;;;5093192;28;20087;-74
2021/12/09 00:33:04;;;;;;;14.70;8.32;;;2.00;99.90;;;;;;5075452;28;20433;-74
2021/12/09 00:35:41;;;;;;;13.40;8.38;;;2.10;99.90;;;;;;5075522;28;20062;-75
2021/12/09 00:38:09;;;;;;;11.13;6.50;;;2.10;99.90;;;;;;5087070;28;20048;-74
2021/12/09 00:40:36;;;;;;;16.50;8.77;;;2.10;99.90;;;;;;5072185;28;20045;-74
2021/12/09 00:43:03;;;;;;;14.13;7.97;;;2.10;99.90;;;;;;5072808;28;20052;-75
2021/12/09 00:45:30;;;;;;;17.75;9.93;;;2.10;99.90;;;;;;5072989;28;20045;-73
2021/12/09 00:47:56;;;;;;;15.82;8.82;;;2.10;99.90;;;;;;5072824;28;20117;-74
2021/12/09 00:50:22;;;;;;;15.45;7.63;;;2.00;99.90;;;;;;5072746;28;20048;-74
2021/12/09 00:52:49;;;;;;;15.15;8.85;;;2.00;99.90;;;;;;5055173;28;20045;-74
2021/12/09 00:55:16;;;;;;;16.55;9.00;;;2.00;99.90;;;;;;5072664;28;20091;-74
2021/12/09 00:57:43;;;;;;;17.83;8.43;;;2.00;99.90;;;;;;5072665;28;20044;-75
2021/12/09 01:00:12;;;;;;;16.73;7.35;;;2.00;99.90;;;;;;5072573;28;20402;-75
2021/12/09 01:02:38;;;;;;;17.17;9.52;;;2.00;99.90;;;;;;5072440;28;20048;-75
2021/12/09 01:05:06;;;;;;;12.98;8.07;;;2.00;99.90;;;;;;5072365;28;20037;-75
2021/12/09 01:07:32;;;;;;;15.02;7.55;;;2.00;99.90;;;;;;5072285;28;20154;-74
2021/12/09 01:09:58;;;;;;;14.95;8.40;;;1.90;99.90;;;;;;5072383;28;20044;-74
2021/12/09 01:12:24;;;;;;;16.10;6.72;;;1.90;99.90;;;;;;5071963;28;20059;-74
2021/12/09 01:14:50;;;;;;;14.60;8.43;;;1.90;99.90;;;;;;5072618;28;20052;-74
2021/12/09 01:17:16;;;;;;;16.08;8.32;;;1.90;99.90;;;;;;5072556;28;20182;-74
2021/12/09 01:19:42;;;;;;;17.10;8.63;;;1.80;99.90;;;;;;5072388;28;20509;-75
2021/12/09 01:22:09;;;;;;;14.60;7.82;;;1.80;99.90;;;;;;5072411;28;20040;-74
2021/12/09 01:24:35;;;;;;;14.10;6.13;;;1.80;99.90;;;;;;5054631;28;20044;-74
2021/12/09 01:27:01;;;;;;;10.90;6.80;;;1.80;99.90;;;;;;5072303;28;20040;-74
2021/12/09 01:29:37;;;;;;;15.55;9.57;;;1.80;99.90;;;;;;5054543;28;20070;-74
2021/12/09 01:32:07;;;;;;;12.48;7.28;;;1.80;99.90;;;;;;5072286;28;20339;-73
2021/12/09 01:34:35;;;;;;;16.03;7.93;;;1.80;99.90;;;;;;5072066;28;20461;-74
2021/12/09 01:37:01;;;;;;;13.02;8.65;;;1.80;99.90;;;;;;5072282;28;20045;-74
2021/12/09 01:39:28;;;;;;;14.75;7.78;;;1.70;99.90;;;;;;5089017;28;20442;-74
2021/12/09 01:41:56;;;;;;;17.33;10.88;;;1.70;99.90;;;;;;5092635;28;20329;-75
2021/12/09 01:44:22;;;;;;;13.35;8.40;;;1.70;99.90;;;;;;5092292;28;20035;-74
2021/12/09 01:46:48;;;;;;;18.75;10.60;;;1.70;99.90;;;;;;5092383;28;20067;-73
2021/12/09 01:49:15;;;;;;;18.98;10.27;;;1.70;99.90;;;;;;5092073;28;20127;-75
2021/12/09 01:51:41;;;;;;;16.52;11.38;;;1.60;99.90;;;;;;5076272;28;20044;-74
2021/12/09 01:54:08;;;;;;;19.02;10.45;;;1.60;99.90;;;;;;5078475;28;20051;-74
2021/12/09 01:56:34;;;;;;;19.02;10.15;;;1.60;99.90;;;;;;5078420;28;20072;-74
2021/12/09 01:59:03;;;;;;;23.23;12.75;;;1.60;99.90;;;;;;5078244;28;20721;-75
2021/12/09 02:01:30;;;;;;;20.50;11.88;;;1.60;99.90;;;;;;5096102;28;20043;-75
2021/12/09 02:03:56;;;;;;;24.77;12.82;;;1.50;99.90;;;;;;5095805;28;20071;-75
2021/12/09 02:06:23;;;;;;;24.02;12.38;;;1.50;99.90;;;;;;5096069;28;20124;-75
2021/12/09 02:08:50;;;;;;;19.70;11.32;;;1.50;99.90;;;;;;5095991;28;20043;-75
2021/12/09 02:11:16;;;;;;;18.40;10.88;;;1.50;99.90;;;;;;5095655;28;20074;-75
2021/12/09 02:13:44;;;;;;;18.63;10.73;;;1.40;99.90;;;;;;5078044;28;20446;-76
2021/12/09 02:16:10;;;;;;;15.10;8.98;;;1.40;99.90;;;;;;5095829;28;20062;-75
2021/12/09 02:18:36;;;;;;;20.38;10.45;;;1.40;99.90;;;;;;5095885;28;20048;-75
2021/12/09 02:21:15;;;;;;;28.38;12.55;;;1.40;99.90;;;;;;5095735;28;20040;-74
2021/12/09 02:23:53;;;;;;;21.50;10.13;;;1.40;99.90;;;;;;5095690;28;20050;-75
2021/12/09 02:26:24;;;;;;;18.38;12.02;;;1.30;99.90;;;;;;5095655;28;20043;-75
2021/12/09 02:28:50;;;;;;;16.23;8.93;;;1.30;99.90;;;;;;5095102;28;20127;-74
2021/12/09 02:31:17;;;;;;;16.35;9.48;;;1.40;99.90;;;;;;5095704;28;20035;-74
2021/12/09 02:33:42;;;;;;;22.02;12.38;;;1.40;99.90;;;;;;5095583;28;20051;-75
2021/12/09 02:36:09;;;;;;;23.77;13.65;;;1.40;99.90;;;;;;5095337;28;20039;-74
2021/12/09 02:38:42;;;;;;;20.70;11.07;;;1.40;99.90;;;;;;5085680;28;20246;-74
2021/12/09 02:41:11;;;;;;;17.98;10.50;;;1.30;99.90;;;;;;5075103;28;20048;-74
2021/12/09 02:43:37;;;;;;;19.08;12.40;;;1.30;99.90;;;;;;5057462;28;20123;-75
2021/12/09 02:46:03;;;;;;;17.08;9.88;;;1.30;99.90;;;;;;5075107;28;20319;-75
2021/12/09 02:48:28;;;;;;;23.77;12.30;;;1.40;99.90;;;;;;5074990;28;20059;-75
2021/12/09 02:50:55;;;;;;;13.30;8.35;;;1.40;99.90;;;;;;5074983;28;20119;-73
2021/12/09 02:53:21;;;;;;;20.33;10.93;;;1.40;99.90;;;;;;5057338;28;20105;-74
2021/12/09 02:55:47;;;;;;;15.88;9.88;;;1.40;99.90;;;;;;5074645;28;20044;-74
2021/12/09 02:58:13;;;;;;;12.50;6.82;;;1.40;99.90;;;;;;5074758;28;20319;-74
2021/12/09 03:01:37;;;;;;;23.20;11.80;;;1.40;99.90;;;;;;5057126;28;20060;-74
2021/12/09 03:04:05;;;;;;;21.70;9.63;;;1.40;99.90;;;;;;4992091;28;20468;-75
2021/12/09 03:06:36;;;;;;;17.63;10.85;;;1.40;99.90;;;;;;4993072;28;20046;-74
2021/12/09 03:09:07;;;;;;;25.58;13.07;;;1.40;99.90;;;;;;5046260;28;20048;-75
2021/12/09 03:11:33;;;;;;;18.88;11.52;;;1.40;99.90;;;;;;5074225;28;20060;-75
2021/12/09 03:14:00;;;;;;;21.58;12.10;;;1.30;99.90;;;;;;5073997;28;20109;-75
2021/12/09 03:16:27;;;;;;;17.27;10.18;;;1.30;99.90;;;;;;5074327;28;20059;-75
2021/12/09 03:19:04;;;;;;;19.33;10.73;;;1.30;99.90;;;;;;5056945;28;20040;-75
2021/12/09 03:21:32;;;;;;;20.52;10.65;;;1.20;99.90;;;;;;5074496;28;20341;-74
2021/12/09 03:24:00;;;;;;;28.92;14.95;;;1.30;99.90;;;;;;5074274;28;20051;-75
2021/12/09 03:26:33;;;;;;;22.98;13.45;;;1.30;99.90;;;;;;5074418;28;20040;-74
2021/12/09 03:29:02;;;;;;;24.08;13.95;;;1.20;99.90;;;;;;5074161;28;20084;-74
2021/12/09 03:31:28;;;;;;;28.15;13.07;;;1.20;99.90;;;;;;5074044;28;20111;-75
2021/12/09 03:33:54;;;;;;;26.88;15.45;;;1.20;99.90;;;;;;5074156;28;20047;-75
2021/12/09 03:36:20;;;;;;;28.55;14.55;;;1.20;99.90;;;;;;5074026;28;20342;-74
2021/12/09 03:38:46;;;;;;;20.38;12.75;;;1.20;99.90;;;;;;5085356;28;20040;-73
2021/12/09 03:41:12;;;;;;;22.67;12.65;;;1.20;99.90;;;;;;5093633;28;20915;-74
2021/12/09 03:43:38;;;;;;;17.55;11.50;;;1.20;99.90;;;;;;5059851;28;20119;-74
2021/12/09 03:46:04;;;;;;;22.35;12.40;;;1.20;99.90;;;;;;5094181;28;20040;-75
2021/12/09 03:48:31;;;;;;;22.83;11.95;;;1.20;99.90;;;;;;5094031;28;20104;-74
2021/12/09 03:50:57;;;;;;;22.20;10.95;;;1.20;99.90;;;;;;5094051;28;20040;-73
2021/12/09 03:53:24;;;;;;;24.63;13.13;;;1.30;99.90;;;;;;5094020;28;20044;-73
2021/12/09 03:55:51;;;;;;;17.67;10.23;;;1.30;99.90;;;;;;5093798;28;20354;-74
2021/12/09 03:58:17;;;;;;;17.88;9.57;;;1.30;99.90;;;;;;5093792;28;20113;-73
2021/12/09 04:00:43;;;;;;;21.77;12.55;;;1.30;99.90;;;;;;5093821;28;20040;-74
2021/12/09 04:03:09;;;;;;;24.83;12.88;;;1.30;99.90;;;;;;5093752;28;20040;-75
2021/12/09 04:05:36;;;;;;;21.55;12.10;;;1.30;99.90;;;;;;5076084;28;20416;-75
2021/12/09 04:08:03;;;;;;;22.58;13.13;;;1.30;99.90;;;;;;5094014;28;20040;-74
2021/12/09 04:10:30;;;;;;;18.73;11.05;;;1.30;99.90;;;;;;5093272;28;20044;-74
2021/12/09 04:12:56;;;;;;;23.50;12.70;;;1.40;99.90;;;;;;5093596;28;20052;-74
2021/12/09 04:15:22;;;;;;;14.15;7.60;;;1.40;99.90;;;;;;5093461;28;20126;-73
2021/12/09 04:17:48;;;;;;;27.20;11.55;;;1.40;99.90;;;;;;5093631;28;20339;-74
2021/12/09 04:20:13;;;;;;;31.25;13.93;;;1.40;99.90;;;;;;5075682;28;20040;-74
2021/12/09 04:22:41;;;;;;;16.75;11.77;;;1.50;99.90;;;;;;5075741;28;20104;-75
2021/12/09 04:25:07;;;;;;;22.15;11.32;;;1.40;99.90;;;;;;5093362;28;20040;-73
2021/12/09 04:27:33;;;;;;;22.55;13.15;;;1.40;99.90;;;;;;5093420;28;20055;-75
2021/12/09 04:29:59;;;;;;;18.45;10.57;;;1.40;99.90;;;;;;5075347;28;20377;-73
2021/12/09 04:32:25;;;;;;;13.93;8.13;;;1.40;99.90;;;;;;5093357;28;20047;-74
2021/12/09 04:34:53;;;;;;;27.55;11.45;;;1.40;99.90;;;;;;5093219;28;20079;-74
2021/12/09 04:37:20;;;;;;;17.58;8.75;;;1.40;99.90;;;;;;5093358;28;20044;-75
2021/12/09 04:39:45;;;;;;;15.77;8.43;;;1.40;99.90;;;;;;5073474;28;20531;-74
2021/12/09 04:42:12;;;;;;;21.83;11.15;;;1.40;99.90;;;;;;5055038;28;20040;-73
2021/12/09 04:44:38;;;;;;;14.60;7.75;;;1.40;99.90;;;;;;5072745;28;20133;-74
2021/12/09 04:47:04;;;;;;;17.23;8.38;;;1.50;99.90;;;;;;5072605;28;20446;-73
2021/12/09 04:49:30;;;;;;;15.65;10.48;;;1.50;99.90;;;;;;5072727;28;20123;-74
2021/12/09 04:51:57;;;;;;;14.05;7.85;;;1.50;99.90;;;;;;5072767;28;20044;-73
2021/12/09 04:54:24;;;;;;;17.80;9.55;;;1.50;99.90;;;;;;5072677;28;20071;-75
2021/12/09 04:56:49;;;;;;;20.33;10.85;;;1.50;99.90;;;;;;5055099;28;20486;-74
2021/12/09 04:59:16;;;;;;;18.95;9.93;;;1.50;99.90;;;;;;5072455;28;20127;-74
2021/12/09 05:01:48;;;;;;;16.13;7.03;;;1.50;99.90;;;;;;5072531;28;20400;-74
2021/12/09 05:04:14;;;;;;;21.83;12.20;;;1.50;99.90;;;;;;5072633;28;20059;-73
2021/12/09 05:06:40;;;;;;;21.70;11.63;;;1.50;99.90;;;;;;5072460;28;20055;-73
2021/12/09 05:09:10;;;;;;;18.15;10.07;;;1.50;99.90;;;;;;5072390;28;20051;-73
2021/12/09 05:14:04;;;;;;;19.35;10.25;;;1.50;99.90;;;;;;5054973;28;20048;-75
2021/12/09 05:16:31;;;;;;;25.52;13.18;;;1.40;99.90;;;;;;5072349;28;20119;-74
2021/12/09 05:18:58;;;;;;;21.55;8.88;;;1.40;99.90;;;;;;5072548;28;20094;-74
2021/12/09 05:21:29;;;;;;;25.77;12.60;;;1.40;99.90;;;;;;5072384;28;20131;-74
2021/12/09 05:23:57;;;;;;;20.92;10.77;;;1.40;99.90;;;;;;5072568;28;20044;-74
2021/12/09 05:26:28;;;;;;;21.02;12.57;;;1.40;99.90;;;;;;5075347;28;20044;-74
2021/12/09 05:28:56;;;;;;;19.20;11.18;;;1.40;99.90;;;;;;5078898;28;20055;-74
2021/12/09 05:34:11;;;;;;;17.60;9.38;;;1.30;99.90;;;;;;5078653;28;20460;-74
2021/12/09 05:36:37;;;;;;;20.98;11.48;;;1.30;99.90;;;;;;5061270;28;20048;-73
2021/12/09 05:39:06;;;;;;;27.42;12.68;;;1.30;99.90;;;;;;5074898;28;20104;-74
2021/12/09 05:41:34;;;;;;;37.55;9.18;;;1.30;99.90;;;;;;5098989;28;20080;-74
2021/12/09 05:44:04;;;;;;;15.68;9.40;;;1.30;99.90;;;;;;5099210;28;20043;-75
2021/12/09 05:46:32;;;;;;;12.32;8.18;;;1.30;99.90;;;;;;5098990;28;20036;-73
2021/12/09 05:48:58;;;;;;;16.33;9.30;;;1.30;99.90;;;;;;5098992;28;20131;-74
2021/12/09 05:51:24;;;;;;;18.65;10.05;;;1.30;99.90;;;;;;5098959;28;20127;-74
2021/12/09 05:53:52;;;;;;;23.38;10.63;;;1.30;99.90;;;;;;5098848;28;20067;-74
2021/12/09 05:56:18;;;;;;;22.30;11.30;;;1.30;99.90;;;;;;5098815;28;20044;-74
2021/12/09 05:58:44;;;;;;;19.35;11.57;;;1.30;99.90;;;;;;5099186;28;20307;-73
2021/12/09 06:01:10;;;;;;;19.60;8.88;;;1.20;99.90;;;;;;5098816;28;20044;-73
2021/12/09 06:03:36;;;;;;;21.98;10.48;;;1.20;99.90;;;;;;5098861;28;20054;-74
2021/12/09 06:06:02;;;;;;;24.48;11.20;;;1.30;99.90;;;;;;5098834;28;20055;-74
2021/12/09 06:08:28;;;;;;;28.90;12.05;;;1.20;99.90;;;;;;5098781;28;20522;-74
2021/12/09 06:10:55;;;;;;;22.88;12.07;;;1.10;99.90;;;;;;5098370;28;20097;-74
2021/12/09 06:13:24;;;;;;;22.60;11.52;;;1.10;99.90;;;;;;5098443;28;20370;-74
2021/12/09 06:15:50;;;;;;;18.10;10.07;;;1.10;99.90;;;;;;5098979;28;20423;-74
2021/12/09 06:18:16;;;;;;;20.83;13.07;;;1.00;99.90;;;;;;5098697;28;20205;-75
2021/12/09 06:20:43;;;;;;;25.38;13.20;;;0.90;99.90;;;;;;5098797;28;20044;-74
2021/12/09 06:23:09;;;;;;;24.45;13.50;;;0.90;99.90;;;;;;5098799;28;20063;-74
2021/12/09 06:25:35;;;;;;;22.67;12.95;;;0.90;99.90;;;;;;5098885;28;20048;-74
2021/12/09 06:28:00;;;;;;;27.52;13.75;;;0.90;99.90;;;;;;5098759;28;20429;-74
2021/12/09 06:30:26;;;;;;;23.50;12.98;;;0.80;99.90;;;;;;5080854;28;20052;-75
2021/12/09 06:32:52;;;;;;;24.33;13.73;;;0.80;99.90;;;;;;5080943;28;20040;-74
2021/12/09 06:35:21;;;;;;;22.42;12.60;;;0.80;99.90;;;;;;5081053;28;20052;-74
2021/12/09 06:37:48;;;;;;;21.88;13.75;;;0.70;99.90;;;;;;5092641;28;20377;-74
2021/12/09 06:40:17;;;;;;;24.77;12.77;;;0.70;99.90;;;;;;5075084;28;20047;-74
2021/12/09 06:42:44;;;;;;;29.95;14.60;;;0.70;99.90;;;;;;5074924;28;20049;-75
2021/12/09 06:45:11;;;;;;;23.00;12.73;;;0.70;99.90;;;;;;5075222;28;20056;-75
2021/12/09 06:47:38;;;;;;;28.08;13.70;;;0.70;99.90;;;;;;5074990;28;20346;-75
2021/12/09 06:50:06;;;;;;;23.75;12.85;;;0.70;99.90;;;;;;5057450;28;20076;-74
2021/12/09 06:52:32;;;;;;;25.40;13.18;;;0.70;99.90;;;;;;5074820;28;20442;-74
2021/12/09 06:54:58;;;;;;;23.17;11.15;;;0.70;99.90;;;;;;5074986;28;20040;-75
2021/12/09 06:57:24;;;;;;;17.20;9.75;;;0.70;99.90;;;;;;5057136;28;20052;-74
2021/12/09 06:59:49;;;;;;;21.92;11.68;;;0.60;99.90;;;;;;5074677;28;20045;-73
2021/12/09 07:02:15;;;;;;;20.67;10.60;;;0.60;99.90;;;;;;5074614;28;20052;-74
2021/12/09 07:04:41;;;;;;;26.73;12.60;;;0.60;99.90;;;;;;5074566;28;20040;-74
2021/12/09 07:07:06;;;;;;;21.98;11.27;;;0.60;99.90;;;;;;5074506;28;20051;-74
2021/12/09 07:09:32;;;;;;;26.60;11.93;;;0.60;99.90;;;;;;5074623;28;20044;-73
2021/12/09 07:11:59;;;;;;;18.65;9.98;;;0.60;99.90;;;;;;5074093;28;20429;-73
2021/12/09 07:14:25;;;;;;;15.15;8.23;;;0.60;99.90;;;;;;5074361;28;20438;-73
2021/12/09 07:16:51;;;;;;;29.98;9.57;;;0.60;99.90;;;;;;5074515;28;20040;-74
2021/12/09 07:19:17;;;;;;;23.33;12.38;;;0.70;99.90;;;;;;5074560;28;20044;-74
2021/12/09 07:21:43;;;;;;;21.42;12.68;;;0.60;99.90;;;;;;5074222;28;20361;-74
2021/12/09 07:24:09;;;;;;;16.65;10.63;;;0.60;99.90;;;;;;5074527;28;20047;-74
2021/12/09 07:26:35;;;;;;;21.90;13.15;;;0.60;99.90;;;;;;5056686;28;20044;-75
2021/12/09 07:29:01;;;;;;;26.45;14.20;;;0.60;99.90;;;;;;5074208;28;20048;-75
2021/12/09 07:31:27;;;;;;;22.13;12.85;;;0.60;99.90;;;;;;5074187;28;20062;-74
2021/12/09 07:33:54;;;;;;;23.65;11.88;;;0.60;99.90;;;;;;5074115;28;20063;-75
2021/12/09 07:36:20;;;;;;;24.02;13.05;;;0.60;99.90;;;;;;5056614;28;20044;-76
2021/12/09 07:38:46;;;;;;;23.23;10.43;;;0.60;99.90;;;;;;5067524;28;20047;-73
2021/12/09 07:41:16;;;;;;;25.52;12.13;;;0.60;99.90;;;;;;5093957;28;20465;-74
2021/12/09 07:43:43;;;;;;;25.83;12.50;;;0.50;99.90;;;;;;5094042;28;20356;-75
2021/12/09 07:46:10;;;;;;;27.27;13.70;;;0.50;99.90;;;;;;5093895;28;20040;-74
2021/12/09 07:48:35;;;;;;;25.02;11.48;;;0.50;99.90;;;;;;5093726;28;20102;-75
2021/12/09 07:51:02;;;;;;;27.73;13.00;;;0.50;99.90;;;;;;5093717;28;20101;-75
2021/12/09 07:53:28;;;;;;;28.02;12.65;;;0.50;99.90;;;;;;5093331;28;20086;-75
2021/12/09 07:55:54;;;;;;;23.65;14.10;;;0.50;99.90;;;;;;5094021;28;20108;-74
2021/12/09 07:58:21;;;;;;;26.98;13.00;;;0.40;99.90;;;;;;5093807;28;20044;-75
2021/12/09 08:00:47;;;;;;;26.23;11.98;;;0.40;99.90;;;;;;5093847;28;20040;-75
2021/12/09 08:03:14;;;;;;;20.20;12.65;;;0.40;99.90;;;;;;5093794;28;20043;-75
2021/12/09 08:05:44;;;;;;;27.55;12.63;;;0.50;99.90;;;;;;5076072;28;20051;-76
2021/12/09 08:08:11;;;;;;;18.70;9.02;;;0.50;99.90;;;;;;5093785;28;20058;-76
2021/12/09 08:10:37;;;;;;;19.40;8.77;;;0.50;99.90;;;;;;5093423;28;20040;-75
2021/12/09 08:13:05;;;;;;;17.00;8.77;;;0.60;99.90;;;;;;5093502;28;20087;-75
2021/12/09 08:15:34;;;;;;;23.90;11.10;;;0.60;99.90;;;;;;5075930;28;20048;-74
2021/12/09 08:20:47;;;;;;;18.13;10.73;;;0.70;99.90;;;;;;5096897;28;20056;-75
2021/12/09 08:23:13;;;;;;;18.05;10.07;;;0.90;99.90;;;;;;5078671;28;20445;-75
2021/12/09 08:25:40;;;;;;;27.60;11.18;;;1.10;99.90;;;;;;5079193;28;20051;-76
2021/12/09 08:28:08;;;;;;;19.17;10.13;;;1.20;99.90;;;;;;5079067;28;20090;-74
2021/12/09 08:30:34;;;;;;;17.95;8.63;;;1.50;99.90;;;;;;5096542;28;20043;-74
2021/12/09 08:33:00;;;;;;;17.15;9.27;;;1.70;99.90;;;;;;5078929;28;20080;-74
2021/12/09 08:35:26;;;;;;;13.50;8.00;;;1.90;99.90;;;;;;5096378;28;20441;-75
2021/12/09 08:37:56;;;;;;;19.73;9.20;;;2.10;99.90;;;;;;5075019;28;20434;-74
2021/12/09 08:40:22;;;;;;;15.48;8.55;;;2.40;99.90;;;;;;5076306;28;20351;-76
2021/12/09 08:42:49;;;;;;;16.52;9.27;;;2.50;99.90;;;;;;5075951;28;20060;-75
2021/12/09 08:45:17;;;;;;;14.30;8.32;;;2.70;99.90;;;;;;5058832;28;20086;-75
2021/12/09 08:47:44;;;;;;;18.25;8.60;;;2.80;99.90;;;;;;5058976;28;20548;-75
2021/12/09 08:50:14;;;;;;;18.77;7.97;;;3.00;99.90;;;;;;5058412;28;20089;-76
2021/12/09 08:52:40;;;;;;;11.32;5.72;;;3.20;99.90;;;;;;5075978;28;20047;-76
2021/12/09 08:55:07;;;;;;;12.02;6.90;;;3.50;99.90;;;;;;5075835;28;20552;-75
2021/12/09 08:57:34;;;;;;;17.42;7.43;;;3.70;99.90;;;;;;5058571;28;20094;-76
2021/12/09 09:00:00;;;;;;;10.43;7.10;;;3.90;99.90;;;;;;5058204;28;20067;-74
2021/12/09 09:02:26;;;;;;;15.95;7.05;;;4.10;99.90;;;;;;5075312;28;20115;-76
2021/12/09 09:04:52;;;;;;;13.20;6.18;;;4.20;99.90;;;;;;5058386;28;20048;-75
2021/12/09 09:07:18;;;;;;;12.18;5.90;;;4.40;99.90;;;;;;5074621;28;20047;-75
2021/12/09 09:09:45;;;;;;;9.88;4.85;;;4.50;99.90;;;;;;5054720;28;20044;-76
2021/12/09 09:12:14;;;;;;;11.98;5.85;;;4.70;99.90;;;;;;5054416;28;20119;-75
2021/12/09 09:14:41;;;;;;;9.40;5.10;;;4.80;99.90;;;;;;5072468;28;20067;-83
2021/12/09 09:17:07;;;;;;;11.70;5.35;;;5.00;99.90;;;;;;5047332;28;20059;-75
2021/12/09 09:19:34;;;;;;;11.00;5.00;;;5.20;99.90;;;;;;5092467;28;20039;-74
2021/12/09 09:22:00;;;;;;;12.27;5.15;;;5.30;99.90;;;;;;5091773;28;20050;-74
2021/12/09 09:24:25;;;;;;;9.77;4.90;;;5.40;99.90;;;;;;5092323;28;20044;-74
2021/12/09 09:26:52;;;;;;;9.13;4.95;;;5.50;99.90;;;;;;5091911;28;20050;-75
2021/12/09 09:29:19;;;;;;;16.25;4.38;;;5.70;99.90;;;;;;5092071;28;20130;-75
2021/12/09 09:31:45;;;;;;;10.27;5.35;;;5.80;99.90;;;;;;5092282;28;20036;-75
2021/12/09 09:34:12;;;;;;;10.68;4.53;;;5.90;99.90;;;;;;5092330;28;20118;-74
2021/12/09 09:36:44;;;;;;;10.38;4.80;;;6.00;99.90;;;;;;5092337;28;20040;-76
2021/12/09 09:39:19;;;;;;;11.30;6.32;;;6.10;99.90;;;;;;5060105;28;20058;-74
2021/12/09 09:41:54;;;;;;;14.10;5.35;;;6.30;99.90;;;;;;5074200;28;20136;-74
2021/12/09 09:44:27;;;;;;;16.17;5.05;;;6.40;99.90;;;;;;5091630;28;20433;-74
2021/12/09 09:46:56;;;;;;;16.48;6.00;;;6.50;99.90;;;;;;5092243;28;20047;-73
2021/12/09 09:49:23;;;;;;;10.60;5.53;;;6.30;99.90;;;;;;5092229;28;20052;-74
2021/12/09 09:51:49;;;;;;;9.75;5.63;;;5.60;99.90;;;;;;5074753;28;20475;-74
2021/12/09 09:54:15;;;;;;;10.88;5.63;;;4.80;99.90;;;;;;5074516;28;20105;-74
2021/12/09 09:56:42;;;;;;;8.52;5.13;;;4.30;99.90;;;;;;5092267;28;20371;-73
2021/12/09 09:59:11;;;;;;;16.00;6.00;;;3.90;99.90;;;;;;5092092;28;20455;-73
2021/12/09 10:01:39;;;;;;;10.57;4.35;;;3.60;99.90;;;;;;5092169;28;20044;-72
2021/12/09 10:04:14;;;;;;;9.98;4.72;;;3.40;99.90;;;;;;5092221;28;20131;-73
2021/12/09 10:06:43;;;;;;;10.27;5.22;;;3.30;99.90;;;;;;5092281;28;20427;-73
2021/12/09 10:09:10;;;;;;;11.00;4.90;;;3.20;99.90;;;;;;5092159;28;20106;-73
2021/12/09 10:11:36;;;;;;;16.70;6.68;;;3.10;99.90;;;;;;5091781;28;20122;-73
2021/12/09 10:14:15;;;;;;;10.60;4.95;;;3.10;99.90;;;;;;5078166;28;20101;-74
2021/12/09 10:16:42;;;;;;;14.73;5.90;;;3.00;99.90;;;;;;5078307;28;20097;-74
2021/12/09 10:19:18;;;;;;;11.93;4.22;;;3.00;99.90;;;;;;5095412;28;20506;-73
2021/12/09 10:21:46;;;;;;;16.75;7.05;;;3.00;99.90;;;;;;5095820;28;20040;-74
2021/12/09 10:24:12;;;;;;;11.93;6.05;;;3.00;99.90;;;;;;5095680;28;20508;-73
2021/12/09 10:26:50;;;;;;;21.52;7.63;;;3.00;99.90;;;;;;5095719;28;20100;-74
2021/12/09 10:29:29;;;;;;;14.13;6.82;;;3.00;99.90;;;;;;5095917;28;20121;-74
2021/12/09 10:32:00;;;;;;;14.05;7.13;;;3.10;99.90;;;;;;5077887;28;20094;-73
2021/12/09 10:34:40;;;;;;;17.75;8.57;;;3.10;99.90;;;;;;5095484;28;20051;-74
2021/12/09 10:37:27;;;;;;;;;;;3.10;99.90;;;;;;5095963;28;20059;-73
2021/12/09 10:40:05;;;;;;;22.05;8.52;;;3.10;99.90;;;;;;5074365;28;19959;-73
2021/12/09 10:42:34;;;;;;;17.42;8.15;;;3.20;99.90;;;;;;5075357;28;20098;-74
2021/12/09 10:45:03;;;;;;;14.00;7.75;;;3.20;99.90;;;;;;5063983;28;20345;-73
2021/12/09 10:50:22;;;;;;;12.68;6.82;;;3.20;99.90;;;;;;5076972;28;20048;-75
2021/12/09 10:52:53;;;;;;;8.75;4.07;;;3.20;99.90;;;;;;5077599;28;20453;-75
2021/12/09 10:55:26;;;;;;;12.57;8.18;;;3.30;99.90;;;;;;5095157;28;20044;-75
2021/12/09 10:57:58;;;;;;;21.02;9.63;;;3.30;99.90;;;;;;5077505;28;20450;-74
2021/12/09 11:00:34;;;;;;;14.75;6.13;;;3.30;99.90;;;;;;5077202;28;20453;-76
2021/12/09 11:03:00;;;;;;;17.10;8.55;;;3.30;99.90;;;;;;5095149;28;20047;-75
2021/12/09 11:05:28;;;;;;;18.20;8.88;;;3.30;99.90;;;;;;5095071;28;20491;-74
2021/12/09 11:08:03;;;;;;;19.65;9.70;;;3.30;99.90;;;;;;5095038;28;20052;-75
2021/12/09 11:10:30;;;;;;;16.35;7.75;;;3.30;99.90;;;;;;5076575;28;20055;-74
2021/12/09 11:12:58;;;;;;;19.70;10.90;;;3.30;99.90;;;;;;5077178;28;20357;-74
2021/12/09 11:15:45;;;;;;;22.67;9.75;;;3.40;99.90;;;;;;5094783;28;20045;-75
2021/12/09 11:18:46;;;;;;;22.20;8.93;;;3.40;99.90;;;;;;5094651;28;20054;-73
2021/12/09 11:21:23;;;;;;;16.95;9.57;;;3.50;99.90;;;;;;4992712;28;20338;-73
2021/12/09 11:23:56;;;;;;;16.50;6.75;;;3.50;99.90;;;;;;5080780;28;20092;-74
2021/12/09 11:26:53;;;;;;;23.90;11.75;;;3.50;99.90;;;;;;5094574;28;20057;-73
2021/12/09 11:29:29;;;;;;;18.40;8.93;;;3.50;99.90;;;;;;5076873;28;20039;-73
2021/12/09 11:32:05;;;;;;;17.73;7.88;;;3.50;99.90;;;;;;5094421;28;20407;-74
2021/12/09 11:40:14;;;;;;;15.07;7.93;;;3.60;99.90;;;;;;5056357;28;20079;-73
2021/12/09 11:45:10;;;;;;;12.30;7.88;;;3.60;99.90;;;;;;5073499;28;20044;-75
2021/12/09 11:47:38;;;;;;;26.10;13.50;;;3.60;99.90;;;;;;5056472;28;20052;-74
2021/12/09 11:50:06;;;;;;;30.50;15.27;;;3.70;99.90;;;;;;5056235;28;20056;-75
2021/12/09 11:52:32;;;;;;;28.35;13.95;;;3.70;99.90;;;;;;5073633;28;20434;-75
2021/12/09 11:55:04;;;;;;;31.58;16.17;;;3.70;99.90;;;;;;5073915;28;20110;-75
2021/12/09 12:12:33;;;;;;;36.10;16.60;;;3.80;99.90;;;;;;5073196;28;20117;-74
2021/12/09 12:15:26;;;;;;;25.98;12.88;;;3.90;99.90;;;;;;5073109;28;20501;-73
2021/12/09 12:20:56;;;;;;;29.17;12.88;;;3.90;99.90;;;;;;5073117;28;20482;-74
2021/12/09 12:40:36;;;;;;;32.60;15.55;;;3.90;99.90;;;;;;5093130;28;20160;-74
2021/12/09 12:43:05;;;;;;;25.40;11.73;;;4.00;99.90;;;;;;5093310;28;20052;-73
2021/12/09 12:48:32;;;;;;;27.92;15.00;;;4.00;99.90;;;;;;5092885;28;20338;-74
2021/12/09 12:51:22;;;;;;;25.65;13.93;;;4.00;99.90;;;;;;5092718;28;20056;-73
2021/12/09 12:54:05;;;;;;;28.30;14.53;;;4.10;99.90;;;;;;5092918;28;20133;-75
2021/12/09 12:56:40;;;;;;;23.98;12.55;;;4.10;99.90;;;;;;5092674;28;20477;-75
2021/12/09 13:01:34;;;;;;;31.30;15.80;;;4.10;99.90;;;;;;5092992;28;20090;-73
2021/12/09 13:04:14;;;;;;;27.30;13.88;;;4.10;99.90;;;;;;5092913;28;20050;-75
2021/12/09 13:06:48;;;;;;;22.97;10.33;;;4.10;99.90;;;;;;5092743;28;20044;-73
2021/12/09 13:09:32;;;;;;;24.15;12.40;;;4.10;99.90;;;;;;5075193;28;20407;-74
2021/12/09 13:12:06;;;;;;;25.27;12.05;;;4.10;99.90;;;;;;5071221;28;20040;-75
2021/12/09 13:14:36;;;;;;;29.92;15.90;;;4.00;99.90;;;;;;5072630;28;20346;-75
2021/12/09 13:17:11;;;;;;;20.85;11.77;;;4.10;99.90;;;;;;5070307;28;20040;-75
2021/12/09 13:20:05;;;;;;;33.47;14.75;;;4.10;99.90;;;;;;5071540;28;20508;-74
2021/12/09 13:22:36;;;;;;;21.52;12.95;;;4.10;99.90;;;;;;5070977;28;20120;-75
2021/12/09 13:25:15;;;;;;;16.23;9.18;;;4.10;99.90;;;;;;5072518;28;20041;-73
2021/12/09 13:27:54;;;;;;;23.40;12.05;;;4.10;99.90;;;;;;5071092;28;20102;-73
2021/12/09 13:30:55;;;;;;;18.23;9.68;;;4.20;99.90;;;;;;5072168;28;20397;-73
2021/12/09 13:33:46;;;;;;;;;;;4.20;99.90;;;;;;5072868;28;20059;-74
2021/12/09 13:47:28;;;;;;;14.60;6.03;;;4.20;99.90;;;;;;5053045;28;20480;-72
2021/12/09 13:50:13;;;;;;;26.00;13.10;;;4.20;99.90;;;;;;5056183;28;20078;-73
2021/12/09 13:55:12;;;;;;;23.00;10.80;;;4.20;99.90;;;;;;5056065;28;20053;-73
2021/12/09 13:57:46;;;;;;;21.00;10.43;;;4.20;99.90;;;;;;5055148;28;20052;-73
2021/12/09 14:00:24;;;;;;;28.65;11.40;;;4.20;99.90;;;;;;5055284;28;20135;-72
2021/12/09 14:03:08;;;;;;;18.42;10.93;;;4.20;99.90;;;;;;5055596;28;20080;-75
2021/12/09 14:05:44;;;;;;;24.45;12.90;;;4.20;99.90;;;;;;5056124;28;20044;-73